KAQW/AQW METAR and TAF weather

Enter ICAO airport designator
Station Type Date Time Source
KAQW METAR 2021/01/17 18:27 UTC NOAA

KAQW 171827Z AUTO 27012G22KT 1 3/4SM -SN BKN026 OVC031 02/M02 A2946 RMK AO2 P0000 T00171022


Station Type Date Time Source
KAQW Decoded METAR 2021/01/17 18:27 UTC NOAA

N ADAMS HARRIMAN-AND-WEST, MA, United States (KAQW) 42-42N 073-10W 201M
Jan 17, 2021 - 01:27 PM EST / 2021.01.17 1827 UTC
Wind: from the W (270 degrees) at 14 MPH (12 KT) gusting to 25 MPH (22 KT):0
Visibility: 1 3/4 mile(s):0
Sky conditions: overcast
Weather: light snow
Precipitation last hour: A trace
Temperature: 35.1 F (1.7 C)
Dew Point: 28.0 F (-2.2 C)
Relative Humidity: 75%
Pressure (altimeter): 29.46 in. Hg (997 hPa)
ob: KAQW 171827Z AUTO 27012G22KT 1 3/4SM -SN BKN026 OVC031 02/M02 A2946 RMK AO2 P0000 T00171022
cycle: 18

Station Type Date Time Source
KAQW TAF UTC NOAA

Error!

Example: see airport list